sensor_id;sensor_type;location;lat;lon;timestamp;P1;durP1;ratioP1;P2;durP2;ratioP2
57303;SDS011;43150;50.986;18.208;2023-08-06T03:44:31;58.20;;;19.60;;
57303;SDS011;43150;50.986;18.208;2023-08-06T03:46:57;60.70;;;18.60;;
57303;SDS011;43150;50.986;18.208;2023-08-06T03:49:23;58.00;;;19.70;;
57303;SDS011;43150;50.986;18.208;2023-08-06T03:51:49;43.20;;;17.40;;
57303;SDS011;43150;50.986;18.208;2023-08-06T03:54:14;46.10;;;18.00;;
57303;SDS011;43150;50.986;18.208;2023-08-06T03:56:40;34.30;;;14.60;;
57303;SDS011;43150;50.986;18.208;2023-08-06T03:59:07;73.90;;;18.70;;
57303;SDS011;43150;50.986;18.208;2023-08-06T04:01:32;88.70;;;19.50;;
57303;SDS011;43150;50.986;18.208;2023-08-06T04:03:58;30.00;;;15.40;;
57303;SDS011;43150;50.986;18.208;2023-08-06T04:06:23;28.20;;;16.90;;
57303;SDS011;43150;50.986;18.208;2023-08-06T04:08:49;35.90;;;17.60;;
57303;SDS011;43150;50.986;18.208;2023-08-06T04:11:15;33.30;;;18.20;;
57303;SDS011;43150;50.986;18.208;2023-08-06T04:13:44;30.70;;;17.40;;
57303;SDS011;43150;50.986;18.208;2023-08-06T04:16:10;37.80;;;18.40;;
57303;SDS011;43150;50.986;18.208;2023-08-06T04:18:36;31.90;;;18.90;;
57303;SDS011;43150;50.986;18.208;2023-08-06T04:21:04;51.80;;;19.50;;
57303;SDS011;43150;50.986;18.208;2023-08-06T04:23:33;34.70;;;18.90;;
57303;SDS011;43150;50.986;18.208;2023-08-06T04:25:58;31.10;;;18.90;;
57303;SDS011;43150;50.986;18.208;2023-08-06T04:28:25;33.50;;;18.90;;
57303;SDS011;43150;50.986;18.208;2023-08-06T04:30:58;31.60;;;18.80;;
57303;SDS011;43150;50.986;18.208;2023-08-06T04:33:25;31.80;;;19.30;;
57303;SDS011;43150;50.986;18.208;2023-08-06T04:35:54;28.50;;;18.00;;
57303;SDS011;43150;50.986;18.208;2023-08-06T04:38:22;30.10;;;18.10;;
57303;SDS011;43150;50.986;18.208;2023-08-06T04:40:50;30.40;;;18.30;;
57303;SDS011;43150;50.986;18.208;2023-08-06T04:43:17;27.50;;;17.20;;
57303;SDS011;43150;50.986;18.208;2023-08-06T04:45:48;25.40;;;16.70;;
57303;SDS011;43150;50.986;18.208;2023-08-06T04:48:14;26.10;;;16.70;;
57303;SDS011;43150;50.986;18.208;2023-08-06T04:50:45;21.90;;;14.40;;
57303;SDS011;43150;50.986;18.208;2023-08-06T04:53:15;24.50;;;14.90;;
57303;SDS011;43150;50.986;18.208;2023-08-06T04:55:45;23.00;;;14.00;;
57303;SDS011;43150;50.986;18.208;2023-08-06T04:58:12;23.50;;;14.80;;
57303;SDS011;43150;50.986;18.208;2023-08-06T05:00:39;21.90;;;14.50;;
57303;SDS011;43150;50.986;18.208;2023-08-06T05:03:05;18.00;;;12.80;;
57303;SDS011;43150;50.986;18.208;2023-08-06T05:05:31;20.60;;;14.60;;
57303;SDS011;43150;50.986;18.208;2023-08-06T05:07:57;19.10;;;13.40;;
57303;SDS011;43150;50.986;18.208;2023-08-06T05:10:27;18.70;;;12.70;;
57303;SDS011;43150;50.986;18.208;2023-08-06T05:12:53;16.30;;;12.20;;
57303;SDS011;43150;50.986;18.208;2023-08-06T05:15:19;18.30;;;12.90;;
57303;SDS011;43150;50.986;18.208;2023-08-06T05:17:45;18.50;;;12.10;;
57303;SDS011;43150;50.986;18.208;2023-08-06T05:20:11;18.50;;;12.40;;
57303;SDS011;43150;50.986;18.208;2023-08-06T05:22:37;19.20;;;12.20;;
57303;SDS011;43150;50.986;18.208;2023-08-06T05:25:04;18.20;;;11.60;;
57303;SDS011;43150;50.986;18.208;2023-08-06T05:27:30;15.90;;;11.60;;
57303;SDS011;43150;50.986;18.208;2023-08-06T05:29:56;17.10;;;11.50;;
57303;SDS011;43150;50.986;18.208;2023-08-06T05:32:23;16.80;;;11.10;;
57303;SDS011;43150;50.986;18.208;2023-08-06T05:34:48;17.90;;;11.80;;
57303;SDS011;43150;50.986;18.208;2023-08-06T05:37:14;15.50;;;11.30;;
57303;SDS011;43150;50.986;18.208;2023-08-06T05:39:40;15.60;;;10.60;;
57303;SDS011;43150;50.986;18.208;2023-08-06T05:42:06;16.10;;;11.60;;
57303;SDS011;43150;50.986;18.208;2023-08-06T05:44:32;16.60;;;11.20;;
57303;SDS011;43150;50.986;18.208;2023-08-06T05:47:01;11.80;;;9.60;;
57303;SDS011;43150;50.986;18.208;2023-08-06T05:49:27;9.50;;;8.00;;
57303;SDS011;43150;50.986;18.208;2023-08-06T05:51:52;13.10;;;9.30;;
57303;SDS011;43150;50.986;18.208;2023-08-06T05:54:18;12.30;;;9.20;;
57303;SDS011;43150;50.986;18.208;2023-08-06T05:56:44;14.00;;;9.90;;
57303;SDS011;43150;50.986;18.208;2023-08-06T05:59:10;17.70;;;10.50;;
57303;SDS011;43150;50.986;18.208;2023-08-06T06:01:36;13.00;;;9.40;;
57303;SDS011;43150;50.986;18.208;2023-08-06T06:04:03;12.60;;;8.80;;
57303;SDS011;43150;50.986;18.208;2023-08-06T06:06:28;12.90;;;8.80;;
57303;SDS011;43150;50.986;18.208;2023-08-06T06:08:54;8.00;;;6.70;;
57303;SDS011;43150;50.986;18.208;2023-08-06T06:11:21;5.90;;;5.30;;
57303;SDS011;43150;50.986;18.208;2023-08-06T06:13:50;5.40;;;4.90;;
57303;SDS011;43150;50.986;18.208;2023-08-06T06:16:16;5.70;;;5.00;;
57303;SDS011;43150;50.986;18.208;2023-08-06T06:18:42;8.10;;;5.40;;
57303;SDS011;43150;50.986;18.208;2023-08-06T06:21:08;5.70;;;4.40;;
57303;SDS011;43150;50.986;18.208;2023-08-06T06:23:33;6.00;;;3.80;;
57303;SDS011;43150;50.986;18.208;2023-08-06T06:25:59;2.90;;;2.60;;
57303;SDS011;43150;50.986;18.208;2023-08-06T06:28:25;2.60;;;2.40;;
57303;SDS011;43150;50.986;18.208;2023-08-06T06:30:51;2.70;;;2.10;;
57303;SDS011;43150;50.986;18.208;2023-08-06T06:33:17;3.80;;;1.50;;
57303;SDS011;43150;50.986;18.208;2023-08-06T06:35:43;1.60;;;0.80;;
57303;SDS011;43150;50.986;18.208;2023-08-06T06:38:08;4.20;;;0.80;;
57303;SDS011;43150;50.986;18.208;2023-08-06T06:40:34;1.70;;;0.50;;
57303;SDS011;43150;50.986;18.208;2023-08-06T06:43:00;1.80;;;0.50;;
57303;SDS011;43150;50.986;18.208;2023-08-06T06:45:26;1.20;;;0.40;;
57303;SDS011;43150;50.986;18.208;2023-08-06T06:47:52;5.70;;;0.60;;
57303;SDS011;43150;50.986;18.208;2023-08-06T06:50:17;2.80;;;0.60;;
57303;SDS011;43150;50.986;18.208;2023-08-06T06:52:43;2.90;;;0.40;;
57303;SDS011;43150;50.986;18.208;2023-08-06T06:55:09;1.00;;;0.30;;
57303;SDS011;43150;50.986;18.208;2023-08-06T06:57:35;0.40;;;0.20;;
57303;SDS011;43150;50.986;18.208;2023-08-06T07:00:00;1.40;;;0.30;;
57303;SDS011;43150;50.986;18.208;2023-08-06T07:02:26;0.40;;;0.20;;
57303;SDS011;43150;50.986;18.208;2023-08-06T07:04:52;0.50;;;0.10;;
57303;SDS011;43150;50.986;18.208;2023-08-06T07:07:18;0.10;;;0.10;;
57303;SDS011;43150;50.986;18.208;2023-08-06T07:09:44;0.50;;;0.10;;
57303;SDS011;43150;50.986;18.208;2023-08-06T07:12:10;0.50;;;0.20;;
57303;SDS011;43150;50.986;18.208;2023-08-06T07:14:37;0.20;;;0.10;;
57303;SDS011;43150;50.986;18.208;2023-08-06T07:17:06;0.30;;;0.20;;
57303;SDS011;43150;50.986;18.208;2023-08-06T07:19:32;0.10;;;0.10;;
57303;SDS011;43150;50.986;18.208;2023-08-06T07:21:58;0.60;;;0.10;;
57303;SDS011;43150;50.986;18.208;2023-08-06T07:24:24;0.80;;;0.10;;
57303;SDS011;43150;50.986;18.208;2023-08-06T07:26:49;0.20;;;0.20;;
57303;SDS011;43150;50.986;18.208;2023-08-06T07:29:15;1.00;;;0.30;;
57303;SDS011;43150;50.986;18.208;2023-08-06T07:31:45;1.20;;;0.50;;
57303;SDS011;43150;50.986;18.208;2023-08-06T07:34:11;1.60;;;0.20;;
57303;SDS011;43150;50.986;18.208;2023-08-06T07:36:43;0.70;;;0.20;;
57303;SDS011;43150;50.986;18.208;2023-08-06T07:39:08;0.30;;;0.20;;
57303;SDS011;43150;50.986;18.208;2023-08-06T07:41:35;0.70;;;0.20;;
57303;SDS011;43150;50.986;18.208;2023-08-06T07:44:00;0.90;;;0.20;;
57303;SDS011;43150;50.986;18.208;2023-08-06T07:46:27;1.50;;;0.40;;
57303;SDS011;43150;50.986;18.208;2023-08-06T07:48:54;0.40;;;0.20;;
57303;SDS011;43150;50.986;18.208;2023-08-06T07:51:20;0.40;;;0.10;;
57303;SDS011;43150;50.986;18.208;2023-08-06T07:53:46;0.80;;;0.20;;
57303;SDS011;43150;50.986;18.208;2023-08-06T07:56:13;0.20;;;0.20;;
57303;SDS011;43150;50.986;18.208;2023-08-06T07:58:39;0.20;;;0.10;;
57303;SDS011;43150;50.986;18.208;2023-08-06T08:01:12;0.50;;;0.20;;
57303;SDS011;43150;50.986;18.208;2023-08-06T08:03:38;0.10;;;0.10;;
57303;SDS011;43150;50.986;18.208;2023-08-06T08:06:03;0.50;;;0.20;;
57303;SDS011;43150;50.986;18.208;2023-08-06T08:08:29;0.20;;;0.20;;
57303;SDS011;43150;50.986;18.208;2023-08-06T08:10:55;0.30;;;0.10;;
57303;SDS011;43150;50.986;18.208;2023-08-06T08:13:22;0.50;;;0.10;;
57303;SDS011;43150;50.986;18.208;2023-08-06T08:15:48;0.30;;;0.10;;
57303;SDS011;43150;50.986;18.208;2023-08-06T08:18:14;0.30;;;0.20;;
57303;SDS011;43150;50.986;18.208;2023-08-06T08:20:40;0.60;;;0.20;;
57303;SDS011;43150;50.986;18.208;2023-08-06T08:23:05;0.50;;;0.20;;
57303;SDS011;43150;50.986;18.208;2023-08-06T08:25:31;0.40;;;0.20;;
57303;SDS011;43150;50.986;18.208;2023-08-06T08:27:57;0.20;;;0.10;;
57303;SDS011;43150;50.986;18.208;2023-08-06T08:30:26;0.40;;;0.20;;
57303;SDS011;43150;50.986;18.208;2023-08-06T08:32:52;0.30;;;0.20;;
57303;SDS011;43150;50.986;18.208;2023-08-06T08:35:18;0.90;;;0.10;;
57303;SDS011;43150;50.986;18.208;2023-08-06T08:37:44;0.50;;;0.10;;
57303;SDS011;43150;50.986;18.208;2023-08-06T08:40:10;0.00;;;0.00;;
57303;SDS011;43150;50.986;18.208;2023-08-06T08:42:36;0.50;;;0.30;;
57303;SDS011;43150;50.986;18.208;2023-08-06T08:45:04;0.40;;;0.10;;
57303;SDS011;43150;50.986;18.208;2023-08-06T08:47:30;0.80;;;0.20;;
57303;SDS011;43150;50.986;18.208;2023-08-06T08:49:57;1.10;;;0.30;;
57303;SDS011;43150;50.986;18.208;2023-08-06T08:52:24;0.80;;;0.20;;
57303;SDS011;43150;50.986;18.208;2023-08-06T08:54:51;0.10;;;0.10;;
57303;SDS011;43150;50.986;18.208;2023-08-06T08:57:20;0.50;;;0.20;;
57303;SDS011;43150;50.986;18.208;2023-08-06T08:59:46;0.30;;;0.20;;
57303;SDS011;43150;50.986;18.208;2023-08-06T09:02:12;0.30;;;0.20;;
57303;SDS011;43150;50.986;18.208;2023-08-06T09:04:38;0.20;;;0.20;;
57303;SDS011;43150;50.986;18.208;2023-08-06T09:07:04;0.40;;;0.20;;
57303;SDS011;43150;50.986;18.208;2023-08-06T09:09:34;0.70;;;0.20;;
57303;SDS011;43150;50.986;18.208;2023-08-06T09:12:03;0.10;;;0.10;;
57303;SDS011;43150;50.986;18.208;2023-08-06T09:14:31;0.30;;;0.20;;
57303;SDS011;43150;50.986;18.208;2023-08-06T09:16:56;0.40;;;0.20;;
57303;SDS011;43150;50.986;18.208;2023-08-06T09:19:23;1.00;;;0.20;;
57303;SDS011;43150;50.986;18.208;2023-08-06T09:21:50;0.30;;;0.20;;
57303;SDS011;43150;50.986;18.208;2023-08-06T09:24:16;0.40;;;0.20;;
57303;SDS011;43150;50.986;18.208;2023-08-06T09:26:43;0.70;;;0.20;;
57303;SDS011;43150;50.986;18.208;2023-08-06T09:29:09;1.00;;;0.20;;
57303;SDS011;43150;50.986;18.208;2023-08-06T09:31:43;0.30;;;0.20;;
57303;SDS011;43150;50.986;18.208;2023-08-06T09:34:10;0.30;;;0.20;;
57303;SDS011;43150;50.986;18.208;2023-08-06T09:36:39;0.30;;;0.30;;
57303;SDS011;43150;50.986;18.208;2023-08-06T09:39:12;0.10;;;0.10;;
57303;SDS011;43150;50.986;18.208;2023-08-06T09:41:37;0.80;;;0.30;;
57303;SDS011;43150;50.986;18.208;2023-08-06T09:44:03;0.20;;;0.10;;
57303;SDS011;43150;50.986;18.208;2023-08-06T09:46:29;0.20;;;0.20;;
57303;SDS011;43150;50.986;18.208;2023-08-06T09:49:03;0.70;;;0.30;;
57303;SDS011;43150;50.986;18.208;2023-08-06T09:51:34;0.50;;;0.20;;
57303;SDS011;43150;50.986;18.208;2023-08-06T09:54:00;0.20;;;0.10;;
57303;SDS011;43150;50.986;18.208;2023-08-06T09:56:26;0.80;;;0.20;;
57303;SDS011;43150;50.986;18.208;2023-08-06T09:58:52;0.90;;;0.20;;
57303;SDS011;43150;50.986;18.208;2023-08-06T10:01:17;0.50;;;0.20;;
57303;SDS011;43150;50.986;18.208;2023-08-06T10:03:44;0.40;;;0.10;;
57303;SDS011;43150;50.986;18.208;2023-08-06T10:06:10;0.20;;;0.20;;
57303;SDS011;43150;50.986;18.208;2023-08-06T10:08:37;0.70;;;0.20;;
57303;SDS011;43150;50.986;18.208;2023-08-06T10:11:03;0.40;;;0.20;;
57303;SDS011;43150;50.986;18.208;2023-08-06T10:13:31;0.90;;;0.20;;
57303;SDS011;43150;50.986;18.208;2023-08-06T10:16:10;0.30;;;0.20;;
57303;SDS011;43150;50.986;18.208;2023-08-06T10:18:36;0.20;;;0.20;;
57303;SDS011;43150;50.986;18.208;2023-08-06T10:21:03;0.20;;;0.20;;
57303;SDS011;43150;50.986;18.208;2023-08-06T10:23:35;0.50;;;0.10;;
57303;SDS011;43150;50.986;18.208;2023-08-06T10:26:05;0.70;;;0.30;;
57303;SDS011;43150;50.986;18.208;2023-08-06T10:28:37;0.40;;;0.20;;
57303;SDS011;43150;50.986;18.208;2023-08-06T10:31:04;0.30;;;0.20;;
57303;SDS011;43150;50.986;18.208;2023-08-06T10:33:42;0.20;;;0.20;;
57303;SDS011;43150;50.986;18.208;2023-08-06T10:36:11;0.20;;;0.10;;
57303;SDS011;43150;50.986;18.208;2023-08-06T10:38:44;0.40;;;0.20;;
57303;SDS011;43150;50.986;18.208;2023-08-06T10:41:10;0.10;;;0.10;;
57303;SDS011;43150;50.986;18.208;2023-08-06T10:43:50;0.10;;;0.10;;
57303;SDS011;43150;50.986;18.208;2023-08-06T10:49:16;0.20;;;0.20;;
57303;SDS011;43150;50.986;18.208;2023-08-06T10:51:43;0.20;;;0.20;;
57303;SDS011;43150;50.986;18.208;2023-08-06T10:54:09;0.30;;;0.10;;
57303;SDS011;43150;50.986;18.208;2023-08-06T10:56:39;0.60;;;0.30;;
57303;SDS011;43150;50.986;18.208;2023-08-06T10:59:05;0.20;;;0.20;;
57303;SDS011;43150;50.986;18.208;2023-08-06T11:01:44;0.20;;;0.20;;
57303;SDS011;43150;50.986;18.208;2023-08-06T11:04:11;0.20;;;0.20;;
57303;SDS011;43150;50.986;18.208;2023-08-06T11:06:42;0.20;;;0.20;;
57303;SDS011;43150;50.986;18.208;2023-08-06T11:09:07;0.70;;;0.30;;
57303;SDS011;43150;50.986;18.208;2023-08-06T11:11:33;0.50;;;0.30;;
57303;SDS011;43150;50.986;18.208;2023-08-06T11:13:58;0.20;;;0.20;;
57303;SDS011;43150;50.986;18.208;2023-08-06T11:16:24;0.30;;;0.20;;
57303;SDS011;43150;50.986;18.208;2023-08-06T11:18:50;0.20;;;0.20;;
57303;SDS011;43150;50.986;18.208;2023-08-06T11:21:22;0.20;;;0.20;;
57303;SDS011;43150;50.986;18.208;2023-08-06T11:23:50;0.20;;;0.20;;
57303;SDS011;43150;50.986;18.208;2023-08-06T11:26:22;0.20;;;0.20;;
57303;SDS011;43150;50.986;18.208;2023-08-06T11:28:52;0.50;;;0.20;;
57303;SDS011;43150;50.986;18.208;2023-08-06T11:31:23;0.20;;;0.20;;
57303;SDS011;43150;50.986;18.208;2023-08-06T11:33:52;1.00;;;0.30;;
57303;SDS011;43150;50.986;18.208;2023-08-06T11:36:28;0.30;;;0.30;;
57303;SDS011;43150;50.986;18.208;2023-08-06T11:38:54;0.20;;;0.20;;
57303;SDS011;43150;50.986;18.208;2023-08-06T11:41:19;0.20;;;0.20;;
57303;SDS011;43150;50.986;18.208;2023-08-06T11:43:45;0.20;;;0.20;;
57303;SDS011;43150;50.986;18.208;2023-08-06T11:46:11;0.50;;;0.30;;
57303;SDS011;43150;50.986;18.208;2023-08-06T11:48:53;0.60;;;0.40;;
57303;SDS011;43150;50.986;18.208;2023-08-06T11:51:23;0.30;;;0.30;;
57303;SDS011;43150;50.986;18.208;2023-08-06T11:53:49;0.20;;;0.20;;
57303;SDS011;43150;50.986;18.208;2023-08-06T11:56:15;0.40;;;0.40;;
57303;SDS011;43150;50.986;18.208;2023-08-06T11:58:42;0.30;;;0.30;;
57303;SDS011;43150;50.986;18.208;2023-08-06T12:01:07;0.40;;;0.30;;
57303;SDS011;43150;50.986;18.208;2023-08-06T12:03:38;0.60;;;0.30;;
57303;SDS011;43150;50.986;18.208;2023-08-06T12:06:04;0.90;;;0.30;;
57303;SDS011;43150;50.986;18.208;2023-08-06T12:08:29;1.00;;;0.30;;
57303;SDS011;43150;50.986;18.208;2023-08-06T12:10:55;0.30;;;0.30;;
57303;SDS011;43150;50.986;18.208;2023-08-06T12:13:21;2.10;;;0.30;;
57303;SDS011;43150;50.986;18.208;2023-08-06T12:15:46;0.60;;;0.30;;
57303;SDS011;43150;50.986;18.208;2023-08-06T12:18:14;0.80;;;0.50;;
57303;SDS011;43150;50.986;18.208;2023-08-06T12:20:40;0.40;;;0.40;;
57303;SDS011;43150;50.986;18.208;2023-08-06T12:23:05;0.50;;;0.50;;
57303;SDS011;43150;50.986;18.208;2023-08-06T12:25:30;0.60;;;0.60;;
57303;SDS011;43150;50.986;18.208;2023-08-06T12:27:56;1.60;;;0.70;;
57303;SDS011;43150;50.986;18.208;2023-08-06T12:30:25;0.70;;;0.60;;
57303;SDS011;43150;50.986;18.208;2023-08-06T12:32:51;0.70;;;0.70;;
57303;SDS011;43150;50.986;18.208;2023-08-06T12:35:17;0.80;;;0.80;;
57303;SDS011;43150;50.986;18.208;2023-08-06T12:37:44;1.10;;;0.90;;
57303;SDS011;43150;50.986;18.208;2023-08-06T12:40:11;1.10;;;1.00;;
57303;SDS011;43150;50.986;18.208;2023-08-06T12:42:37;0.80;;;0.80;;
57303;SDS011;43150;50.986;18.208;2023-08-06T12:45:02;0.90;;;0.90;;
57303;SDS011;43150;50.986;18.208;2023-08-06T12:47:28;0.90;;;0.90;;
57303;SDS011;43150;50.986;18.208;2023-08-06T12:49:53;0.90;;;0.90;;
57303;SDS011;43150;50.986;18.208;2023-08-06T12:52:19;0.90;;;0.90;;
57303;SDS011;43150;50.986;18.208;2023-08-06T12:54:47;0.90;;;0.90;;
57303;SDS011;43150;50.986;18.208;2023-08-06T12:57:13;1.30;;;1.00;;
57303;SDS011;43150;50.986;18.208;2023-08-06T12:59:39;0.90;;;0.80;;
57303;SDS011;43150;50.986;18.208;2023-08-06T13:02:11;0.80;;;0.80;;
57303;SDS011;43150;50.986;18.208;2023-08-06T13:04:37;1.00;;;0.90;;
57303;SDS011;43150;50.986;18.208;2023-08-06T13:07:02;0.80;;;0.80;;
57303;SDS011;43150;50.986;18.208;2023-08-06T13:09:28;0.80;;;0.80;;
57303;SDS011;43150;50.986;18.208;2023-08-06T13:11:54;0.70;;;0.70;;
57303;SDS011;43150;50.986;18.208;2023-08-06T13:14:20;0.70;;;0.70;;
57303;SDS011;43150;50.986;18.208;2023-08-06T13:16:46;0.80;;;0.60;;
57303;SDS011;43150;50.986;18.208;2023-08-06T13:19:12;1.40;;;0.50;;
57303;SDS011;43150;50.986;18.208;2023-08-06T13:24:11;0.50;;;0.50;;
57303;SDS011;43150;50.986;18.208;2023-08-06T13:26:38;0.50;;;0.50;;
57303;SDS011;43150;50.986;18.208;2023-08-06T13:29:09;0.40;;;0.40;;
57303;SDS011;43150;50.986;18.208;2023-08-06T13:31:38;0.30;;;0.30;;
57303;SDS011;43150;50.986;18.208;2023-08-06T13:34:03;0.40;;;0.40;;
57303;SDS011;43150;50.986;18.208;2023-08-06T13:36:32;0.30;;;0.30;;
57303;SDS011;43150;50.986;18.208;2023-08-06T13:38:58;0.30;;;0.30;;
57303;SDS011;43150;50.986;18.208;2023-08-06T13:41:24;0.60;;;0.30;;
57303;SDS011;43150;50.986;18.208;2023-08-06T13:43:49;0.20;;;0.20;;
57303;SDS011;43150;50.986;18.208;2023-08-06T13:46:17;0.30;;;0.30;;
57303;SDS011;43150;50.986;18.208;2023-08-06T13:48:45;0.20;;;0.20;;
57303;SDS011;43150;50.986;18.208;2023-08-06T13:51:30;0.30;;;0.30;;
57303;SDS011;43150;50.986;18.208;2023-08-06T13:53:56;0.20;;;0.20;;
57303;SDS011;43150;50.986;18.208;2023-08-06T13:56:23;0.60;;;0.30;;
57303;SDS011;43150;50.986;18.208;2023-08-06T13:58:49;0.50;;;0.20;;
57303;SDS011;43150;50.986;18.208;2023-08-06T14:01:17;0.50;;;0.20;;
57303;SDS011;43150;50.986;18.208;2023-08-06T14:03:46;0.30;;;0.30;;
57303;SDS011;43150;50.986;18.208;2023-08-06T14:06:23;0.20;;;0.20;;
57303;SDS011;43150;50.986;18.208;2023-08-06T14:08:49;1.10;;;0.30;;
57303;SDS011;43150;50.986;18.208;2023-08-06T14:11:15;0.30;;;0.30;;
57303;SDS011;43150;50.986;18.208;2023-08-06T14:13:40;0.20;;;0.20;;
57303;SDS011;43150;50.986;18.208;2023-08-06T14:16:06;1.00;;;0.30;;
57303;SDS011;43150;50.986;18.208;2023-08-06T14:18:34;0.20;;;0.20;;
57303;SDS011;43150;50.986;18.208;2023-08-06T14:21:02;0.20;;;0.20;;
57303;SDS011;43150;50.986;18.208;2023-08-06T14:23:28;0.30;;;0.30;;
57303;SDS011;43150;50.986;18.208;2023-08-06T14:25:54;0.20;;;0.20;;
57303;SDS011;43150;50.986;18.208;2023-08-06T14:28:19;0.30;;;0.30;;
57303;SDS011;43150;50.986;18.208;2023-08-06T14:30:45;0.20;;;0.20;;
57303;SDS011;43150;50.986;18.208;2023-08-06T14:33:11;0.20;;;0.20;;
57303;SDS011;43150;50.986;18.208;2023-08-06T14:35:36;0.10;;;0.10;;
57303;SDS011;43150;50.986;18.208;2023-08-06T14:38:02;0.20;;;0.20;;
57303;SDS011;43150;50.986;18.208;2023-08-06T14:40:27;0.30;;;0.30;;
57303;SDS011;43150;50.986;18.208;2023-08-06T14:43:00;0.30;;;0.20;;
57303;SDS011;43150;50.986;18.208;2023-08-06T14:45:26;0.20;;;0.20;;
57303;SDS011;43150;50.986;18.208;2023-08-06T14:47:52;0.30;;;0.20;;
57303;SDS011;43150;50.986;18.208;2023-08-06T14:50:17;0.40;;;0.40;;
57303;SDS011;43150;50.986;18.208;2023-08-06T14:52:46;0.30;;;0.30;;
57303;SDS011;43150;50.986;18.208;2023-08-06T14:55:17;0.30;;;0.30;;
57303;SDS011;43150;50.986;18.208;2023-08-06T14:57:42;0.50;;;0.40;;
57303;SDS011;43150;50.986;18.208;2023-08-06T15:00:08;0.70;;;0.40;;
57303;SDS011;43150;50.986;18.208;2023-08-06T15:02:35;0.30;;;0.30;;
57303;SDS011;43150;50.986;18.208;2023-08-06T15:05:01;0.50;;;0.50;;
57303;SDS011;43150;50.986;18.208;2023-08-06T15:07:27;0.30;;;0.30;;
57303;SDS011;43150;50.986;18.208;2023-08-06T15:09:53;0.40;;;0.40;;
57303;SDS011;43150;50.986;18.208;2023-08-06T15:12:20;0.40;;;0.40;;
57303;SDS011;43150;50.986;18.208;2023-08-06T15:14:46;0.40;;;0.40;;
57303;SDS011;43150;50.986;18.208;2023-08-06T15:17:12;0.40;;;0.40;;
57303;SDS011;43150;50.986;18.208;2023-08-06T15:19:38;0.50;;;0.40;;
57303;SDS011;43150;50.986;18.208;2023-08-06T15:22:04;0.50;;;0.40;;
57303;SDS011;43150;50.986;18.208;2023-08-06T15:24:29;0.50;;;0.50;;
57303;SDS011;43150;50.986;18.208;2023-08-06T15:26:58;0.50;;;0.50;;
57303;SDS011;43150;50.986;18.208;2023-08-06T15:29:23;0.50;;;0.50;;
57303;SDS011;43150;50.986;18.208;2023-08-06T15:31:49;0.50;;;0.50;;
57303;SDS011;43150;50.986;18.208;2023-08-06T15:34:14;0.50;;;0.50;;
57303;SDS011;43150;50.986;18.208;2023-08-06T15:36:40;0.80;;;0.60;;
57303;SDS011;43150;50.986;18.208;2023-08-06T15:39:06;0.70;;;0.50;;
57303;SDS011;43150;50.986;18.208;2023-08-06T15:41:31;0.40;;;0.40;;
57303;SDS011;43150;50.986;18.208;2023-08-06T15:43:57;0.40;;;0.40;;
57303;SDS011;43150;50.986;18.208;2023-08-06T15:46:23;0.40;;;0.40;;
57303;SDS011;43150;50.986;18.208;2023-08-06T15:48:48;0.30;;;0.30;;
57303;SDS011;43150;50.986;18.208;2023-08-06T15:51:14;0.50;;;0.50;;
57303;SDS011;43150;50.986;18.208;2023-08-06T15:53:39;0.30;;;0.30;;
57303;SDS011;43150;50.986;18.208;2023-08-06T15:56:08;0.40;;;0.40;;
57303;SDS011;43150;50.986;18.208;2023-08-06T15:58:34;0.50;;;0.40;;
57303;SDS011;43150;50.986;18.208;2023-08-06T16:00:59;0.30;;;0.30;;
57303;SDS011;43150;50.986;18.208;2023-08-06T16:03:25;0.30;;;0.20;;
57303;SDS011;43150;50.986;18.208;2023-08-06T16:05:50;0.50;;;0.40;;
57303;SDS011;43150;50.986;18.208;2023-08-06T16:08:16;0.40;;;0.40;;
57303;SDS011;43150;50.986;18.208;2023-08-06T16:10:41;0.40;;;0.40;;
57303;SDS011;43150;50.986;18.208;2023-08-06T16:13:10;1.10;;;0.40;;
57303;SDS011;43150;50.986;18.208;2023-08-06T16:15:36;0.20;;;0.20;;
57303;SDS011;43150;50.986;18.208;2023-08-06T16:18:02;0.40;;;0.40;;
57303;SDS011;43150;50.986;18.208;2023-08-06T16:20:28;0.50;;;0.50;;
57303;SDS011;43150;50.986;18.208;2023-08-06T16:22:53;0.50;;;0.50;;
57303;SDS011;43150;50.986;18.208;2023-08-06T16:25:19;0.40;;;0.40;;
57303;SDS011;43150;50.986;18.208;2023-08-06T16:27:45;0.50;;;0.50;;
57303;SDS011;43150;50.986;18.208;2023-08-06T16:30:10;0.80;;;0.80;;
57303;SDS011;43150;50.986;18.208;2023-08-06T16:32:36;0.70;;;0.70;;
57303;SDS011;43150;50.986;18.208;2023-08-06T16:35:02;1.00;;;0.90;;
57303;SDS011;43150;50.986;18.208;2023-08-06T16:37:28;0.80;;;0.80;;
57303;SDS011;43150;50.986;18.208;2023-08-06T16:39:57;1.50;;;0.80;;
57303;SDS011;43150;50.986;18.208;2023-08-06T16:42:23;1.70;;;1.20;;
57303;SDS011;43150;50.986;18.208;2023-08-06T16:44:48;0.60;;;0.60;;
57303;SDS011;43150;50.986;18.208;2023-08-06T16:47:14;1.80;;;1.30;;
57303;SDS011;43150;50.986;18.208;2023-08-06T16:49:39;1.20;;;1.10;;
57303;SDS011;43150;50.986;18.208;2023-08-06T16:52:05;1.20;;;1.10;;
57303;SDS011;43150;50.986;18.208;2023-08-06T16:54:31;1.30;;;0.70;;
57303;SDS011;43150;50.986;18.208;2023-08-06T16:56:56;1.50;;;1.40;;
57303;SDS011;43150;50.986;18.208;2023-08-06T16:59:24;1.60;;;1.50;;
57303;SDS011;43150;50.986;18.208;2023-08-06T17:01:49;1.40;;;1.30;;
57303;SDS011;43150;50.986;18.208;2023-08-06T17:04:15;1.40;;;1.30;;
57303;SDS011;43150;50.986;18.208;2023-08-06T17:06:40;2.40;;;1.20;;
57303;SDS011;43150;50.986;18.208;2023-08-06T17:09:06;1.20;;;1.10;;
57303;SDS011;43150;50.986;18.208;2023-08-06T17:11:31;1.00;;;0.90;;
57303;SDS011;43150;50.986;18.208;2023-08-06T17:14:03;1.60;;;0.90;;
57303;SDS011;43150;50.986;18.208;2023-08-06T17:16:28;1.00;;;1.00;;
57303;SDS011;43150;50.986;18.208;2023-08-06T17:18:55;0.60;;;0.50;;
57303;SDS011;43150;50.986;18.208;2023-08-06T17:21:22;0.60;;;0.60;;
57303;SDS011;43150;50.986;18.208;2023-08-06T17:23:49;1.30;;;1.20;;
57303;SDS011;43150;50.986;18.208;2023-08-06T17:26:14;1.40;;;1.30;;
57303;SDS011;43150;50.986;18.208;2023-08-06T17:28:40;0.70;;;0.50;;
57303;SDS011;43150;50.986;18.208;2023-08-06T17:31:05;1.40;;;1.30;;
57303;SDS011;43150;50.986;18.208;2023-08-06T17:33:32;1.20;;;1.10;;
57303;SDS011;43150;50.986;18.208;2023-08-06T17:35:58;1.40;;;1.30;;
57303;SDS011;43150;50.986;18.208;2023-08-06T17:38:27;1.40;;;1.10;;
57303;SDS011;43150;50.986;18.208;2023-08-06T17:40:53;1.70;;;1.50;;
57303;SDS011;43150;50.986;18.208;2023-08-06T17:43:20;1.50;;;1.30;;
57303;SDS011;43150;50.986;18.208;2023-08-06T17:48:31;1.90;;;1.80;;
57303;SDS011;43150;50.986;18.208;2023-08-06T17:50:57;1.80;;;1.50;;
57303;SDS011;43150;50.986;18.208;2023-08-06T17:53:23;4.10;;;2.10;;
57303;SDS011;43150;50.986;18.208;2023-08-06T17:56:07;1.90;;;1.70;;
57303;SDS011;43150;50.986;18.208;2023-08-06T17:58:33;1.10;;;1.00;;
57303;SDS011;43150;50.986;18.208;2023-08-06T18:00:59;2.00;;;1.70;;
57303;SDS011;43150;50.986;18.208;2023-08-06T18:03:24;2.30;;;2.10;;
57303;SDS011;43150;50.986;18.208;2023-08-06T18:05:54;2.10;;;2.00;;
57303;SDS011;43150;50.986;18.208;2023-08-06T18:08:20;2.60;;;2.40;;
57303;SDS011;43150;50.986;18.208;2023-08-06T18:10:48;3.50;;;3.20;;
57303;SDS011;43150;50.986;18.208;2023-08-06T18:13:13;2.80;;;2.60;;
57303;SDS011;43150;50.986;18.208;2023-08-06T18:15:39;3.60;;;3.30;;
57303;SDS011;43150;50.986;18.208;2023-08-06T18:18:06;3.50;;;2.90;;
57303;SDS011;43150;50.986;18.208;2023-08-06T18:20:31;1.70;;;1.50;;